createdAt,value
2022-08-26T00:00:07.452Z,9.279923
2022-08-26T00:01:07.407Z,9.279895
2022-08-26T00:02:07.507Z,9.279876
2022-08-26T00:03:07.509Z,9.279912
2022-08-26T00:04:07.444Z,9.279953
2022-08-26T00:05:07.357Z,9.279878
2022-08-26T00:06:07.310Z,9.279895
2022-08-26T00:07:07.295Z,9.279955
2022-08-26T00:08:07.276Z,9.279953
2022-08-26T00:09:08.035Z,9.279912
2022-08-26T00:10:07.268Z,9.279893
2022-08-26T00:11:07.223Z,9.279937
2022-08-26T00:12:07.203Z,9.279936
2022-08-26T00:13:07.387Z,9.279919
2022-08-26T00:14:07.164Z,9.279927
2022-08-26T00:15:08.179Z,9.279970
2022-08-26T00:16:07.165Z,9.279875
2022-08-26T00:17:08.652Z,9.279914
2022-08-26T00:18:16.734Z,9.279863
2022-08-26T00:19:08.118Z,9.279901
2022-08-26T00:20:07.086Z,9.279922
2022-08-26T00:21:07.038Z,9.279913
2022-08-26T00:22:07.017Z,9.279807
2022-08-26T00:23:07.179Z,9.279923
2022-08-26T00:24:06.984Z,9.279878
2022-08-26T00:25:06.986Z,9.279952
2022-08-26T00:26:06.943Z,9.279888
2022-08-26T00:27:06.927Z,9.279882
2022-08-26T00:28:06.905Z,9.279916
2022-08-26T00:29:06.885Z,9.279933
2022-08-26T00:30:06.896Z,9.279906
2022-08-26T00:31:06.851Z,9.280037
2022-08-26T00:32:06.901Z,9.280177
2022-08-26T00:33:07.268Z,9.280088
2022-08-26T00:34:06.793Z,9.279965
2022-08-26T00:35:06.805Z,9.279898
2022-08-26T00:36:06.764Z,9.280006
2022-08-26T00:37:08.930Z,9.280027
2022-08-26T00:38:06.719Z,9.279947
2022-08-26T00:39:06.701Z,9.279993
2022-08-26T00:40:06.753Z,9.280002
2022-08-26T00:41:06.664Z,9.280045
2022-08-26T00:42:06.645Z,9.280049
2022-08-26T00:43:09.304Z,9.280027
2022-08-26T00:44:06.608Z,9.279826
2022-08-26T00:45:10.199Z,9.279974
2022-08-26T00:46:07.613Z,9.279941
2022-08-26T00:47:06.554Z,9.279965
2022-08-26T00:48:06.535Z,9.279934
2022-08-26T00:49:11.848Z,9.280098
2022-08-26T00:50:07.521Z,9.280258
2022-08-26T00:51:07.481Z,9.280377
2022-08-26T00:52:06.460Z,9.280160
2022-08-26T00:53:06.653Z,9.280044
2022-08-26T00:54:06.427Z,9.279960
2022-08-26T00:55:06.435Z,9.279907
2022-08-26T00:56:06.390Z,9.279927
2022-08-26T00:57:15.807Z,9.279955
2022-08-26T00:58:07.352Z,9.279914
2022-08-26T00:59:06.338Z,9.279956
2022-08-26T01:00:06.339Z,9.279908
2022-08-26T01:01:06.342Z,9.279922
2022-08-26T01:02:06.299Z,9.279972
2022-08-26T01:03:06.365Z,9.280035
2022-08-26T01:04:07.246Z,9.279930
2022-08-26T01:05:06.251Z,9.280089
2022-08-26T01:06:06.212Z,9.280073
2022-08-26T01:07:07.190Z,9.280113
2022-08-26T01:08:06.172Z,9.280037
2022-08-26T01:09:06.153Z,9.279983
2022-08-26T01:10:06.162Z,9.280072
2022-08-26T01:11:06.119Z,9.279955
2022-08-26T01:12:06.099Z,9.279951
2022-08-26T01:13:06.380Z,9.279917
2022-08-26T01:14:06.062Z,9.279868
2022-08-26T01:15:06.070Z,9.279852
2022-08-26T01:16:06.049Z,9.279976
2022-08-26T01:17:06.013Z,9.279853
2022-08-26T01:18:05.987Z,9.279940
2022-08-26T01:19:05.971Z,9.279924
2022-08-26T01:20:06.072Z,9.279950
2022-08-26T01:21:05.935Z,9.279974
2022-08-26T01:22:05.919Z,9.280005
2022-08-26T01:23:06.077Z,9.279943
2022-08-26T01:24:05.879Z,9.279935
2022-08-26T01:25:05.891Z,9.279873
2022-08-26T01:26:05.844Z,9.279912
2022-08-26T01:27:05.825Z,9.279988
2022-08-26T01:28:05.813Z,9.279948
2022-08-26T01:29:05.787Z,9.279853
2022-08-26T01:30:05.841Z,9.279871
2022-08-26T01:31:05.748Z,9.279895
2022-08-26T01:32:05.733Z,9.280006
2022-08-26T01:33:05.966Z,9.279911
2022-08-26T01:34:05.694Z,9.279944
2022-08-26T01:35:05.701Z,9.279936
2022-08-26T01:36:05.658Z,9.279969
2022-08-26T01:37:05.643Z,9.280046
2022-08-26T01:38:05.620Z,9.280163
2022-08-26T01:39:05.705Z,9.280046
2022-08-26T01:40:05.690Z,9.280104
2022-08-26T01:41:16.139Z,9.280078
2022-08-26T01:42:06.542Z,9.279903
2022-08-26T01:43:05.682Z,9.280030
2022-08-26T01:44:05.510Z,9.280036
2022-08-26T01:45:05.515Z,9.280012
2022-08-26T01:46:05.515Z,9.279958
2022-08-26T01:47:06.525Z,9.280010
2022-08-26T01:48:05.435Z,9.280048
2022-08-26T01:49:06.501Z,9.280041
2022-08-26T01:50:05.431Z,9.280040
2022-08-26T01:51:05.406Z,9.280020
2022-08-26T01:52:05.360Z,9.280006
2022-08-26T01:53:05.499Z,9.280057
2022-08-26T01:54:05.335Z,9.280023
2022-08-26T01:55:05.328Z,9.280027
2022-08-26T01:56:05.282Z,9.280014
2022-08-26T01:57:05.267Z,9.279979
2022-08-26T01:58:05.311Z,9.280136
2022-08-26T01:59:05.233Z,9.280178
2022-08-26T02:00:05.240Z,9.280077
2022-08-26T02:01:05.223Z,9.280124
2022-08-26T02:02:05.170Z,9.279939
2022-08-26T02:03:05.170Z,9.279878
2022-08-26T02:04:05.139Z,9.279688
2022-08-26T02:05:05.152Z,9.279459
2022-08-26T02:06:05.102Z,9.279446
2022-08-26T02:07:05.080Z,9.279541
2022-08-26T02:08:05.061Z,9.279612
2022-08-26T02:09:05.041Z,9.279888
2022-08-26T02:10:05.051Z,9.279953
2022-08-26T02:11:05.028Z,9.280065
2022-08-26T02:12:04.990Z,9.280231
2022-08-26T02:13:04.969Z,9.280014
2022-08-26T02:14:04.962Z,9.279797
2022-08-26T02:15:05.649Z,9.279580
2022-08-26T02:16:04.957Z,9.279709
2022-08-26T02:17:04.894Z,9.279587
2022-08-26T02:18:04.871Z,9.279347
2022-08-26T02:19:04.861Z,9.279699
2022-08-26T02:20:04.865Z,9.279738
2022-08-26T02:21:06.766Z,9.279752
2022-08-26T02:22:04.796Z,9.279896
2022-08-26T02:23:04.779Z,9.279979
2022-08-26T02:24:04.772Z,9.279981
2022-08-26T02:25:04.770Z,9.279916
2022-08-26T02:26:04.721Z,9.279948
2022-08-26T02:27:04.703Z,9.279935
2022-08-26T02:28:04.692Z,9.279809
2022-08-26T02:29:04.664Z,9.279848
2022-08-26T02:30:04.672Z,9.279874
2022-08-26T02:31:04.720Z,9.279873
2022-08-26T02:32:04.605Z,9.279834
2022-08-26T02:33:04.636Z,9.279888
2022-08-26T02:34:04.571Z,9.279965
2022-08-26T02:35:04.574Z,9.280003
2022-08-26T02:36:04.543Z,9.279998
2022-08-26T02:37:04.510Z,9.279936
2022-08-26T02:38:10.214Z,9.279956
2022-08-26T02:39:06.481Z,9.279890
2022-08-26T02:40:04.536Z,9.279905
2022-08-26T02:41:04.441Z,9.279930
2022-08-26T02:42:04.445Z,9.279863
2022-08-26T02:43:04.402Z,9.279923
2022-08-26T02:44:04.378Z,9.279924
2022-08-26T02:45:04.393Z,9.279940
2022-08-26T02:46:04.338Z,9.279913
2022-08-26T02:47:04.378Z,9.279896
2022-08-26T02:48:04.305Z,9.279941
2022-08-26T02:49:04.287Z,9.279914
2022-08-26T02:50:04.292Z,9.279918
2022-08-26T02:51:04.249Z,9.279940
2022-08-26T02:52:04.227Z,9.279917
2022-08-26T02:53:04.255Z,9.279924
2022-08-26T02:54:04.190Z,9.279922
2022-08-26T02:55:04.199Z,9.279916
2022-08-26T02:56:04.155Z,9.279894
2022-08-26T02:57:04.134Z,9.279935
2022-08-26T02:58:04.113Z,9.279926
2022-08-26T02:59:04.090Z,9.279963
2022-08-26T03:00:04.101Z,9.279942
2022-08-26T03:01:04.897Z,9.279954
2022-08-26T03:02:04.077Z,9.279943
2022-08-26T03:03:04.059Z,9.279886
2022-08-26T03:04:04.004Z,9.279951
2022-08-26T03:05:04.007Z,9.280007
2022-08-26T03:06:03.962Z,9.279900
2022-08-26T03:07:03.943Z,9.279864
2022-08-26T03:08:03.925Z,9.279840
2022-08-26T03:09:03.903Z,9.279989
2022-08-26T03:10:08.136Z,9.279837
2022-08-26T03:11:03.869Z,9.279872
2022-08-26T03:12:03.848Z,9.280031
2022-08-26T03:13:05.186Z,9.279965
2022-08-26T03:14:03.879Z,9.279948
2022-08-26T03:15:17.295Z,9.279982
2022-08-26T03:16:04.804Z,9.279943
2022-08-26T03:17:03.762Z,9.279899
2022-08-26T03:18:03.745Z,9.279860
2022-08-26T03:19:03.719Z,9.279898
2022-08-26T03:20:03.739Z,9.279875
2022-08-26T03:21:03.682Z,9.279899
2022-08-26T03:22:03.664Z,9.279911
2022-08-26T03:23:03.660Z,9.279929
2022-08-26T03:24:03.628Z,9.279982
2022-08-26T03:25:03.631Z,9.279918
2022-08-26T03:26:03.587Z,9.279856
2022-08-26T03:27:05.826Z,9.279907
2022-08-26T03:28:03.552Z,9.279951
2022-08-26T03:29:03.535Z,9.279939
2022-08-26T03:30:03.541Z,9.279926
2022-08-26T03:31:03.568Z,9.279948
2022-08-26T03:32:03.474Z,9.279971
2022-08-26T03:33:03.458Z,9.279986
2022-08-26T03:34:03.438Z,9.279988
2022-08-26T03:35:03.446Z,9.279942
2022-08-26T03:36:03.397Z,9.279954
2022-08-26T03:37:03.377Z,9.279958
2022-08-26T03:38:03.363Z,9.279959
2022-08-26T03:39:03.341Z,9.279969
2022-08-26T03:40:03.417Z,9.279965
2022-08-26T03:41:03.298Z,9.279976
2022-08-26T03:42:03.285Z,9.280001
2022-08-26T03:43:03.263Z,9.279954
2022-08-26T03:44:03.415Z,9.279973
2022-08-26T03:45:03.251Z,9.280004
2022-08-26T03:46:03.236Z,9.279985
2022-08-26T03:47:03.187Z,9.279989
2022-08-26T03:48:03.167Z,9.279920
2022-08-26T03:49:03.148Z,9.279930
2022-08-26T03:50:03.163Z,9.280005
2022-08-26T03:51:03.213Z,9.279963
2022-08-26T03:52:03.121Z,9.280000
2022-08-26T03:53:03.073Z,9.279937
2022-08-26T03:54:03.068Z,9.279955
2022-08-26T03:55:03.054Z,9.279989
2022-08-26T03:56:03.014Z,9.279992
2022-08-26T03:57:02.987Z,9.279997
2022-08-26T03:58:02.971Z,9.279998
2022-08-26T03:59:02.953Z,9.280024
2022-08-26T04:00:02.934Z,9.279997
2022-08-26T04:01:02.942Z,9.280038
2022-08-26T04:02:02.956Z,9.279991
2022-08-26T04:03:03.999Z,9.280042
2022-08-26T04:04:03.274Z,9.279977
2022-08-26T04:05:02.870Z,9.279958
2022-08-26T04:06:02.817Z,9.279983
2022-08-26T04:07:02.797Z,9.279987
2022-08-26T04:08:02.775Z,9.279952
2022-08-26T04:09:02.757Z,9.280021
2022-08-26T04:10:02.742Z,9.279964
2022-08-26T04:11:02.745Z,9.279958
2022-08-26T04:12:02.700Z,9.279868
2022-08-26T04:13:02.683Z,9.279895
2022-08-26T04:14:02.668Z,9.279934
2022-08-26T04:15:02.841Z,9.279911
2022-08-26T04:16:02.721Z,9.279907
2022-08-26T04:17:02.605Z,9.279854
2022-08-26T04:18:02.587Z,9.279829
2022-08-26T04:19:02.563Z,9.279862
2022-08-26T04:20:02.554Z,9.279808
2022-08-26T04:21:02.543Z,9.279898
2022-08-26T04:22:04.502Z,9.279917
2022-08-26T04:23:02.512Z,9.279912
2022-08-26T04:24:03.651Z,9.279922
2022-08-26T04:25:02.444Z,9.279879
2022-08-26T04:26:02.452Z,9.279821
2022-08-26T04:27:02.408Z,9.279836
2022-08-26T04:28:02.388Z,9.279892
2022-08-26T04:29:02.374Z,9.279897
2022-08-26T04:30:02.353Z,9.279909
2022-08-26T04:31:02.371Z,9.279975
2022-08-26T04:32:02.308Z,9.279951
2022-08-26T04:33:02.325Z,9.279909
2022-08-26T04:34:02.270Z,9.279908
2022-08-26T04:35:02.250Z,9.279949
2022-08-26T04:36:02.256Z,9.279902
2022-08-26T04:37:02.214Z,9.279807
2022-08-26T04:38:02.194Z,9.280014
2022-08-26T04:39:02.171Z,9.279915
2022-08-26T04:40:02.254Z,9.279918
2022-08-26T04:41:02.161Z,9.279909
2022-08-26T04:42:02.114Z,9.279955
2022-08-26T04:43:02.148Z,9.279879
2022-08-26T04:44:02.077Z,9.279887
2022-08-26T04:45:02.059Z,9.279830
2022-08-26T04:46:02.126Z,9.279908
2022-08-26T04:47:02.020Z,9.279859
2022-08-26T04:48:01.996Z,9.279848
2022-08-26T04:49:01.980Z,9.279848
2022-08-26T04:50:02.120Z,9.279968
2022-08-26T04:51:01.966Z,9.279869
2022-08-26T04:52:01.931Z,9.279892
2022-08-26T04:53:01.941Z,9.279917
2022-08-26T04:54:01.885Z,9.279832
2022-08-26T04:55:01.877Z,9.279833
2022-08-26T04:56:01.883Z,9.280068
2022-08-26T04:57:01.823Z,9.279986
2022-08-26T04:58:01.799Z,9.280004
2022-08-26T04:59:01.785Z,9.279740
2022-08-26T05:00:01.767Z,9.279766
2022-08-26T05:01:01.768Z,9.279549
2022-08-26T05:02:01.805Z,9.279806
2022-08-26T05:03:01.794Z,9.280038
2022-08-26T05:04:01.770Z,9.280107
2022-08-26T05:05:01.668Z,9.279858
2022-08-26T05:06:01.677Z,9.279877
2022-08-26T05:07:02.883Z,9.279870
2022-08-26T05:08:01.615Z,9.279785
2022-08-26T05:09:01.627Z,9.279910
2022-08-26T05:10:01.580Z,9.279997
2022-08-26T05:11:01.586Z,9.279917
2022-08-26T05:12:01.543Z,9.279971
2022-08-26T05:13:01.578Z,9.280010
2022-08-26T05:14:02.252Z,9.280176
2022-08-26T05:15:02.486Z,9.280376
2022-08-26T05:16:01.601Z,9.280108
2022-08-26T05:17:01.457Z,9.279938
2022-08-26T05:18:01.433Z,9.279885
2022-08-26T05:19:01.415Z,9.279760
2022-08-26T05:20:01.393Z,9.279728
2022-08-26T05:21:01.399Z,9.279537
2022-08-26T05:22:01.355Z,9.279712
2022-08-26T05:23:01.357Z,9.279874
2022-08-26T05:24:01.315Z,9.279691
2022-08-26T05:25:01.295Z,9.279550
2022-08-26T05:26:01.305Z,9.279693
2022-08-26T05:27:01.263Z,9.279863
2022-08-26T05:28:01.248Z,9.279665
2022-08-26T05:29:01.222Z,9.279969
2022-08-26T05:30:01.206Z,9.279921
2022-08-26T05:31:01.274Z,9.279988
2022-08-26T05:32:01.174Z,9.280150
2022-08-26T05:33:01.146Z,9.280205
2022-08-26T05:34:03.592Z,9.280048
2022-08-26T05:35:01.118Z,9.280100
2022-08-26T05:36:01.128Z,9.280102
2022-08-26T05:37:01.079Z,9.280121
2022-08-26T05:38:01.062Z,9.280189
2022-08-26T05:39:01.045Z,9.280020
2022-08-26T05:40:01.059Z,9.280050
2022-08-26T05:41:01.033Z,9.279932
2022-08-26T05:42:00.986Z,9.279957
2022-08-26T05:43:00.968Z,9.279957
2022-08-26T05:44:00.955Z,9.280012
2022-08-26T05:45:00.934Z,9.280111
2022-08-26T05:46:00.944Z,9.280086
2022-08-26T05:47:00.901Z,9.280030
2022-08-26T05:48:00.882Z,9.280054
2022-08-26T05:49:00.863Z,9.280058
2022-08-26T05:50:00.847Z,9.280068
2022-08-26T05:51:00.862Z,9.280033
2022-08-26T05:52:00.813Z,9.280069
2022-08-26T05:53:00.793Z,9.280096
2022-08-26T05:54:00.776Z,9.279995
2022-08-26T05:55:00.769Z,9.280039
2022-08-26T05:56:00.769Z,9.280038
2022-08-26T05:57:00.726Z,9.280083
2022-08-26T05:58:02.677Z,9.280060
2022-08-26T05:59:00.681Z,9.280022
2022-08-26T06:00:00.679Z,9.279989
2022-08-26T06:01:00.687Z,9.280046
2022-08-26T06:02:00.652Z,9.280092
2022-08-26T06:03:00.658Z,9.280027
2022-08-26T06:04:00.596Z,9.280044
2022-08-26T06:05:00.578Z,9.280071
2022-08-26T06:06:00.599Z,9.280078
2022-08-26T06:07:00.545Z,9.279999
2022-08-26T06:08:00.526Z,9.280036
2022-08-26T06:09:00.505Z,9.280110
2022-08-26T06:10:21.620Z,9.280076
2022-08-26T06:11:02.507Z,9.280021
2022-08-26T06:12:00.457Z,9.280055
2022-08-26T06:13:04.398Z,9.280043
2022-08-26T06:14:03.739Z,9.279992
2022-08-26T06:15:01.405Z,9.280064
2022-08-26T06:16:00.440Z,9.280066
2022-08-26T06:17:00.378Z,9.279996
2022-08-26T06:18:00.354Z,9.280081
2022-08-26T06:19:00.337Z,9.280068
2022-08-26T06:20:00.322Z,9.279962
2022-08-26T06:21:00.331Z,9.279984
2022-08-26T06:22:00.287Z,9.280047
2022-08-26T06:23:00.268Z,9.280031
2022-08-26T06:24:00.253Z,9.279977
2022-08-26T06:25:00.238Z,9.280069
2022-08-26T06:26:00.245Z,9.279997
2022-08-26T06:27:00.207Z,9.280033
2022-08-26T06:28:00.189Z,9.279994
2022-08-26T06:29:00.175Z,9.280061
2022-08-26T06:30:00.162Z,9.279956
2022-08-26T06:31:00.235Z,9.279908
2022-08-26T06:32:00.122Z,9.279921
2022-08-26T06:33:00.107Z,9.279797
2022-08-26T06:34:00.092Z,9.279984
2022-08-26T06:35:00.075Z,9.280099
2022-08-26T06:36:00.096Z,9.279968
2022-08-26T06:37:01.328Z,9.279993
2022-08-26T06:38:00.028Z,9.279928
2022-08-26T06:39:00.008Z,9.279984
2022-08-26T06:40:00.021Z,9.279956
2022-08-26T06:41:00.007Z,9.279978
2022-08-26T06:41:59.963Z,9.280101
2022-08-26T06:42:59.948Z,9.280092
2022-08-26T06:43:59.938Z,9.279922
2022-08-26T06:44:59.943Z,9.280059
2022-08-26T06:46:00.015Z,9.280037
2022-08-26T06:46:59.884Z,9.279922
2022-08-26T06:47:59.876Z,9.279878
2022-08-26T06:48:59.848Z,9.279944
2022-08-26T06:49:59.836Z,9.279879
2022-08-26T06:50:59.819Z,9.280031
2022-08-26T06:51:59.872Z,9.279907
2022-08-26T06:52:59.790Z,9.279935
2022-08-26T06:53:59.778Z,9.279975
2022-08-26T06:54:59.758Z,9.279930
2022-08-26T06:55:59.748Z,9.279992
2022-08-26T06:56:59.755Z,9.279976
2022-08-26T06:57:59.712Z,9.279922
2022-08-26T06:58:59.698Z,9.280000
2022-08-26T06:59:59.682Z,9.279950
2022-08-26T07:01:03.771Z,9.279995
2022-08-26T07:02:01.723Z,9.280066
2022-08-26T07:02:59.689Z,9.279925
2022-08-26T07:03:59.624Z,9.279892
2022-08-26T07:04:59.604Z,9.279804
2022-08-26T07:05:59.590Z,9.279823
2022-08-26T07:06:59.603Z,9.279931
2022-08-26T07:07:59.561Z,9.279963
2022-08-26T07:08:59.545Z,9.279915
2022-08-26T07:09:59.536Z,9.279875
2022-08-26T07:10:59.518Z,9.279893
2022-08-26T07:11:59.531Z,9.279965
2022-08-26T07:12:59.487Z,9.279956
2022-08-26T07:13:59.469Z,9.279846
2022-08-26T07:14:59.457Z,9.279890
2022-08-26T07:16:03.033Z,9.279869
2022-08-26T07:16:59.458Z,9.279853
2022-08-26T07:17:59.412Z,9.279870
2022-08-26T07:18:59.388Z,9.279876
2022-08-26T07:20:00.381Z,9.279880
2022-08-26T07:20:59.369Z,9.279987
2022-08-26T07:21:59.379Z,9.279963
2022-08-26T07:22:59.333Z,9.279874
2022-08-26T07:24:01.620Z,9.279894
2022-08-26T07:25:00.300Z,9.279922
2022-08-26T07:25:59.282Z,9.279793
2022-08-26T07:26:59.301Z,9.279841
2022-08-26T07:27:59.257Z,9.279847
2022-08-26T07:28:59.420Z,9.279928
2022-08-26T07:29:59.227Z,9.279932
2022-08-26T07:30:59.289Z,9.279909
2022-08-26T07:31:59.226Z,9.279927
2022-08-26T07:32:59.189Z,9.279791
2022-08-26T07:33:59.166Z,9.279799
2022-08-26T07:34:59.157Z,9.279839
2022-08-26T07:35:59.132Z,9.280018
2022-08-26T07:36:59.163Z,9.279976
2022-08-26T07:37:59.102Z,9.279958
2022-08-26T07:38:59.094Z,9.279920
2022-08-26T07:39:59.128Z,9.279874
2022-08-26T07:40:59.060Z,9.279984
2022-08-26T07:41:59.073Z,9.279993
2022-08-26T07:42:59.029Z,9.279967
2022-08-26T07:43:59.009Z,9.279888
2022-08-26T07:44:59.000Z,9.279992
2022-08-26T07:45:58.976Z,9.279782
2022-08-26T07:46:58.987Z,9.279749
2022-08-26T07:47:58.941Z,9.279866
2022-08-26T07:48:58.966Z,9.280029
2022-08-26T07:49:58.919Z,9.279882
2022-08-26T07:50:58.900Z,9.279944
2022-08-26T07:51:58.908Z,9.279911
2022-08-26T07:52:58.880Z,9.279870
2022-08-26T07:53:58.852Z,9.279914
2022-08-26T07:54:58.836Z,9.279842
2022-08-26T07:55:58.821Z,9.279889
2022-08-26T07:56:58.835Z,9.279881
2022-08-26T07:57:58.795Z,9.279921
2022-08-26T07:58:58.777Z,9.279835
2022-08-26T07:59:58.761Z,9.279887
2022-08-26T08:00:58.743Z,9.279941
2022-08-26T08:01:58.809Z,9.279890
2022-08-26T08:02:58.714Z,9.279856
2022-08-26T08:03:58.699Z,9.279844
2022-08-26T08:04:58.829Z,9.279886
2022-08-26T08:05:58.674Z,9.279937
2022-08-26T08:06:58.682Z,9.279948
2022-08-26T08:08:00.811Z,9.279799
2022-08-26T08:08:59.627Z,9.279812
2022-08-26T08:09:58.607Z,9.279883
2022-08-26T08:10:58.588Z,9.279924
2022-08-26T08:11:58.602Z,9.279860
2022-08-26T08:12:58.562Z,9.279829
2022-08-26T08:13:58.551Z,9.279866
2022-08-26T08:14:58.534Z,9.279850
2022-08-26T08:15:58.515Z,9.279851
2022-08-26T08:16:58.571Z,9.279839
2022-08-26T08:18:00.647Z,9.279895
2022-08-26T08:18:59.470Z,9.279882
2022-08-26T08:19:58.452Z,9.279870
2022-08-26T08:21:10.835Z,9.279843
2022-08-26T08:21:59.454Z,9.279831
2022-08-26T08:22:58.406Z,9.279766
2022-08-26T08:23:58.404Z,9.279510
2022-08-26T08:24:58.387Z,9.279675
2022-08-26T08:25:58.366Z,9.279866
2022-08-26T08:26:58.377Z,9.279816
2022-08-26T08:27:58.327Z,9.279912
2022-08-26T08:28:58.312Z,9.279872
2022-08-26T08:29:58.328Z,9.279738
2022-08-26T08:30:58.297Z,9.279852
2022-08-26T08:31:59.900Z,9.279895
2022-08-26T08:32:58.277Z,9.279869
2022-08-26T08:33:58.263Z,9.279921
2022-08-26T08:34:58.225Z,9.279872
2022-08-26T08:35:58.210Z,9.280223
2022-08-26T08:36:58.216Z,9.280151
2022-08-26T08:37:58.173Z,9.280002
2022-08-26T08:38:58.160Z,9.279895
2022-08-26T08:39:58.186Z,9.279948
2022-08-26T08:40:58.125Z,9.279899
2022-08-26T08:41:58.137Z,9.279867
2022-08-26T08:42:58.129Z,9.279932
2022-08-26T08:43:58.077Z,9.279883
2022-08-26T08:44:58.060Z,9.279842
2022-08-26T08:45:58.103Z,9.279980
2022-08-26T08:46:58.074Z,9.279968
2022-08-26T08:47:58.037Z,9.279955
2022-08-26T08:48:57.997Z,9.279962
2022-08-26T08:49:57.991Z,9.279867
2022-08-26T08:50:57.999Z,9.279978
2022-08-26T08:51:57.974Z,9.279891
2022-08-26T08:52:57.937Z,9.280014
2022-08-26T08:53:57.916Z,9.279975
2022-08-26T08:54:57.931Z,9.279989
2022-08-26T08:55:57.887Z,9.279997
2022-08-26T08:56:57.903Z,9.279916
2022-08-26T08:58:01.659Z,9.279852
2022-08-26T08:58:57.840Z,9.279937
2022-08-26T08:59:57.818Z,9.279853
2022-08-26T09:00:57.834Z,9.279920
2022-08-26T09:01:57.835Z,9.279919
2022-08-26T09:02:57.768Z,9.279892
2022-08-26T09:03:57.751Z,9.279980
2022-08-26T09:04:57.748Z,9.279812
2022-08-26T09:05:57.715Z,9.279956
2022-08-26T09:07:57.683Z,9.279997
2022-08-26T09:08:57.694Z,9.279912
2022-08-26T09:09:57.648Z,9.280071
2022-08-26T09:10:57.688Z,9.279917
2022-08-26T09:11:57.678Z,9.279943
2022-08-26T09:12:57.599Z,9.280049
2022-08-26T09:13:57.585Z,9.280188
2022-08-26T09:14:57.562Z,9.280139
2022-08-26T09:15:57.543Z,9.280106
2022-08-26T09:16:57.618Z,9.280087
2022-08-26T09:17:57.514Z,9.280014
2022-08-26T09:18:57.496Z,9.280002
2022-08-26T09:19:57.492Z,9.280099
2022-08-26T09:20:58.460Z,9.280188
2022-08-26T09:21:57.469Z,9.279877
2022-08-26T09:22:57.436Z,9.280077
2022-08-26T09:23:57.407Z,9.280052
2022-08-26T09:24:57.414Z,9.279771
2022-08-26T09:25:57.413Z,9.279474
2022-08-26T09:26:57.381Z,9.280021
2022-08-26T09:27:57.335Z,9.280010
2022-08-26T09:28:57.318Z,9.279871
2022-08-26T09:29:57.299Z,9.279737
2022-08-26T09:30:57.334Z,9.279886
2022-08-26T09:31:57.290Z,9.279910
2022-08-26T09:32:57.246Z,9.279916
2022-08-26T09:33:57.248Z,9.279799
2022-08-26T09:34:57.209Z,9.279885
2022-08-26T09:35:57.198Z,9.279986
2022-08-26T09:36:57.217Z,9.280161
2022-08-26T09:37:57.163Z,9.280071
2022-08-26T09:38:57.139Z,9.280096
2022-08-26T09:39:57.187Z,9.280137
2022-08-26T09:40:59.246Z,9.280071
2022-08-26T09:41:57.132Z,9.280007
2022-08-26T09:42:57.082Z,9.280088
2022-08-26T09:43:57.051Z,9.279822
2022-08-26T09:44:57.048Z,9.279845
2022-08-26T09:45:59.513Z,9.279896
2022-08-26T09:46:58.101Z,9.280010
2022-08-26T09:47:56.984Z,9.279833
2022-08-26T09:48:56.967Z,9.279579
2022-08-26T09:49:56.954Z,9.279496
2022-08-26T09:50:56.939Z,9.279724
2022-08-26T09:51:56.941Z,9.279813
2022-08-26T09:52:56.909Z,9.279908
2022-08-26T09:53:56.885Z,9.279858
2022-08-26T09:54:56.869Z,9.279796
2022-08-26T09:55:56.848Z,9.279952
2022-08-26T09:56:56.865Z,9.279920
2022-08-26T09:57:57.524Z,9.279789
2022-08-26T09:58:56.800Z,9.279831
2022-08-26T09:59:56.775Z,9.279768
2022-08-26T10:00:56.853Z,9.279951
2022-08-26T10:01:56.873Z,9.279712
2022-08-26T10:02:58.135Z,9.279914
2022-08-26T10:03:57.764Z,9.279832
2022-08-26T10:04:56.689Z,9.279888
2022-08-26T10:05:56.681Z,9.279826
2022-08-26T10:06:56.690Z,9.279821
2022-08-26T10:07:56.635Z,9.279856
2022-08-26T10:08:56.620Z,9.279947
2022-08-26T10:09:56.609Z,9.279930
2022-08-26T10:10:56.584Z,9.279847
2022-08-26T10:11:56.595Z,9.279893
2022-08-26T10:12:56.554Z,9.279780
2022-08-26T10:13:56.530Z,9.279781
2022-08-26T10:14:56.520Z,9.280049
2022-08-26T10:15:56.502Z,9.279931
2022-08-26T10:16:56.639Z,9.279936
2022-08-26T10:17:56.462Z,9.280077
2022-08-26T10:18:59.918Z,9.279905
2022-08-26T10:19:57.899Z,9.279870
2022-08-26T10:20:57.412Z,9.280029
2022-08-26T10:21:56.424Z,9.279925
2022-08-26T10:22:56.379Z,9.279892
2022-08-26T10:23:56.363Z,9.279952
2022-08-26T10:24:56.359Z,9.279860
2022-08-26T10:25:58.932Z,9.279951
2022-08-26T10:26:56.343Z,9.280003
2022-08-26T10:27:56.303Z,9.279883
2022-08-26T10:28:56.277Z,9.279843
2022-08-26T10:29:56.264Z,9.279848
2022-08-26T10:30:56.286Z,9.280201
2022-08-26T10:32:02.422Z,9.280109
2022-08-26T10:32:57.206Z,9.280072
2022-08-26T10:33:58.852Z,9.279947
2022-08-26T10:34:57.178Z,9.280043
2022-08-26T10:35:56.162Z,9.279915
2022-08-26T10:37:13.937Z,9.279891
2022-08-26T10:37:58.131Z,9.279966
2022-08-26T10:38:56.106Z,9.279927
2022-08-26T10:39:58.664Z,9.279778
2022-08-26T10:40:57.080Z,9.279811
2022-08-26T10:41:56.084Z,9.279715
2022-08-26T10:42:56.043Z,9.279775
2022-08-26T10:43:56.017Z,9.279881
2022-08-26T10:44:58.593Z,9.279712
2022-08-26T10:45:56.047Z,9.279670
2022-08-26T10:46:56.004Z,9.279816
2022-08-26T10:47:55.964Z,9.279776
2022-08-26T10:48:55.937Z,9.279840
2022-08-26T10:50:00.420Z,9.280053
2022-08-26T10:50:57.896Z,9.279930
2022-08-26T10:51:55.912Z,9.279822
2022-08-26T10:52:55.857Z,9.279893
2022-08-26T10:53:55.854Z,9.279687
2022-08-26T10:54:55.824Z,9.279786
2022-08-26T10:55:55.832Z,9.279763
2022-08-26T10:56:55.816Z,9.279677
2022-08-26T10:57:55.770Z,9.279629
2022-08-26T10:58:55.752Z,9.279860
2022-08-26T10:59:55.739Z,9.279767
2022-08-26T11:00:55.873Z,9.279691
2022-08-26T11:01:55.736Z,9.279673
2022-08-26T11:02:55.723Z,9.279812
2022-08-26T11:03:57.943Z,9.279789
2022-08-26T11:04:55.646Z,9.279789
2022-08-26T11:05:55.632Z,9.279734
2022-08-26T11:06:55.641Z,9.279777
2022-08-26T11:07:55.598Z,9.279841
2022-08-26T11:08:55.577Z,9.279933
2022-08-26T11:09:55.553Z,9.279964
2022-08-26T11:10:55.540Z,9.279834
2022-08-26T11:11:55.554Z,9.279852
2022-08-26T11:12:55.505Z,9.279789
2022-08-26T11:13:55.493Z,9.279777
2022-08-26T11:14:59.065Z,9.279694
2022-08-26T11:15:55.448Z,9.279716
2022-08-26T11:16:55.508Z,9.279757
2022-08-26T11:17:55.408Z,9.279886
2022-08-26T11:18:55.404Z,9.279846
2022-08-26T11:20:01.478Z,9.279745
2022-08-26T11:20:57.359Z,9.279725
2022-08-26T11:21:55.372Z,9.279741
2022-08-26T11:22:55.322Z,9.279769
2022-08-26T11:23:55.307Z,9.279794
2022-08-26T11:24:55.293Z,9.279828
2022-08-26T11:25:55.267Z,9.279882
2022-08-26T11:26:56.693Z,9.279925
2022-08-26T11:27:55.236Z,9.279899
2022-08-26T11:28:55.219Z,9.279813
2022-08-26T11:29:55.195Z,9.279829
2022-08-26T11:30:58.132Z,9.279946
2022-08-26T11:31:56.325Z,9.279990
2022-08-26T11:32:55.148Z,9.279979
2022-08-26T11:33:55.130Z,9.279970
2022-08-26T11:34:55.131Z,9.279801
2022-08-26T11:35:55.093Z,9.279923
2022-08-26T11:36:55.108Z,9.279959
2022-08-26T11:37:55.060Z,9.279993
2022-08-26T11:38:55.049Z,9.279965
2022-08-26T11:39:57.195Z,9.279943
2022-08-26T11:40:56.004Z,9.279928
2022-08-26T11:41:54.992Z,9.279908
2022-08-26T11:42:55.000Z,9.279980
2022-08-26T11:43:54.964Z,9.279965
2022-08-26T11:44:56.190Z,9.279930